sensor_id;sensor_type;location;lat;lon;timestamp;pressure;altitude;pressure_sealevel;temperature;humidity
22647;BME280;11490;42.726;23.268;2022-08-05T00:00:57;95323.16;;;20.63;76.35
22647;BME280;11490;42.726;23.268;2022-08-05T00:03:22;95359.16;;;20.82;76.68
22647;BME280;11490;42.726;23.268;2022-08-05T00:05:48;95331.88;;;20.60;76.62
22647;BME280;11490;42.726;23.268;2022-08-05T00:08:13;95334.22;;;20.66;76.46
22647;BME280;11490;42.726;23.268;2022-08-05T00:10:39;95343.16;;;20.67;76.39
22647;BME280;11490;42.726;23.268;2022-08-05T00:13:04;95343.22;;;20.62;76.72
22647;BME280;11490;42.726;23.268;2022-08-05T00:15:30;95337.63;;;20.58;76.75
22647;BME280;11490;42.726;23.268;2022-08-05T00:17:56;95353.50;;;20.65;76.46
22647;BME280;11490;42.726;23.268;2022-08-05T00:20:21;95342.03;;;20.68;76.43
22647;BME280;11490;42.726;23.268;2022-08-05T00:22:47;95334.16;;;20.53;75.98
22647;BME280;11490;42.726;23.268;2022-08-05T00:25:12;95293.53;;;20.20;76.60
22647;BME280;11490;42.726;23.268;2022-08-05T00:27:37;95312.91;;;20.27;76.80
22647;BME280;11490;42.726;23.268;2022-08-05T00:30:04;95305.50;;;20.14;76.96
22647;BME280;11490;42.726;23.268;2022-08-05T00:36:06;95331.13;;;20.22;77.41
22647;BME280;11490;42.726;23.268;2022-08-05T00:38:31;95327.59;;;20.21;77.24
22647;BME280;11490;42.726;23.268;2022-08-05T00:40:57;95302.25;;;19.98;77.38
22647;BME280;11490;42.726;23.268;2022-08-05T00:43:23;95340.66;;;20.19;77.55
22647;BME280;11490;42.726;23.268;2022-08-05T00:45:49;95316.09;;;19.97;78.01
22647;BME280;11490;42.726;23.268;2022-08-05T00:48:17;95346.28;;;20.23;78.00
22647;BME280;11490;42.726;23.268;2022-08-05T00:50:44;95340.81;;;20.09;77.36
22647;BME280;11490;42.726;23.268;2022-08-05T00:53:10;95312.06;;;19.94;77.71
22647;BME280;11490;42.726;23.268;2022-08-05T00:55:36;95310.03;;;19.86;77.55
22647;BME280;11490;42.726;23.268;2022-08-05T00:58:01;95311.78;;;19.77;77.98
22647;BME280;11490;42.726;23.268;2022-08-05T01:00:29;95326.75;;;19.70;77.51
22647;BME280;11490;42.726;23.268;2022-08-05T01:02:55;95338.41;;;19.70;78.42
22647;BME280;11490;42.726;23.268;2022-08-05T01:05:21;95307.31;;;19.44;78.11
22647;BME280;11490;42.726;23.268;2022-08-05T01:07:47;95325.31;;;19.58;77.91
22647;BME280;11490;42.726;23.268;2022-08-05T01:10:15;95316.66;;;19.56;78.42
22647;BME280;11490;42.726;23.268;2022-08-05T01:12:44;95289.72;;;19.46;78.53
22647;BME280;11490;42.726;23.268;2022-08-05T01:15:12;95309.41;;;19.52;78.70
22647;BME280;11490;42.726;23.268;2022-08-05T01:17:55;95297.59;;;19.24;78.77
22647;BME280;11490;42.726;23.268;2022-08-05T01:20:33;95343.09;;;19.65;78.69
22647;BME280;11490;42.726;23.268;2022-08-05T01:29:00;95344.28;;;19.30;79.71
22647;BME280;11490;42.726;23.268;2022-08-05T01:31:41;95301.97;;;19.20;79.54
22647;BME280;11490;42.726;23.268;2022-08-05T01:34:12;95315.31;;;19.35;78.82
22647;BME280;11490;42.726;23.268;2022-08-05T01:36:46;95330.72;;;19.35;78.78
22647;BME280;11490;42.726;23.268;2022-08-05T01:39:14;95309.91;;;19.11;79.66
22647;BME280;11490;42.726;23.268;2022-08-05T01:41:42;95341.75;;;19.38;79.92
22647;BME280;11490;42.726;23.268;2022-08-05T01:44:11;95346.47;;;19.51;79.12
22647;BME280;11490;42.726;23.268;2022-08-05T01:46:39;95342.69;;;19.52;78.72
22647;BME280;11490;42.726;23.268;2022-08-05T01:49:05;95346.00;;;19.44;79.38
22647;BME280;11490;42.726;23.268;2022-08-05T01:51:35;95336.13;;;19.35;79.28
22647;BME280;11490;42.726;23.268;2022-08-05T01:54:02;95348.78;;;19.39;79.08
22647;BME280;11490;42.726;23.268;2022-08-05T01:56:31;95346.97;;;19.35;79.66
22647;BME280;11490;42.726;23.268;2022-08-05T01:58:59;95332.66;;;19.29;79.73
22647;BME280;11490;42.726;23.268;2022-08-05T02:01:27;95345.09;;;19.30;79.52
22647;BME280;11490;42.726;23.268;2022-08-05T02:03:54;95353.09;;;19.40;79.86
22647;BME280;11490;42.726;23.268;2022-08-05T02:06:21;95337.41;;;19.18;80.22
22647;BME280;11490;42.726;23.268;2022-08-05T02:08:47;95335.56;;;19.14;79.98
22647;BME280;11490;42.726;23.268;2022-08-05T02:11:15;95339.03;;;19.19;80.13
22647;BME280;11490;42.726;23.268;2022-08-05T02:14:00;95345.28;;;19.15;80.39
22647;BME280;11490;42.726;23.268;2022-08-05T02:16:50;95346.88;;;19.16;80.65
22647;BME280;11490;42.726;23.268;2022-08-05T02:22:00;95305.69;;;18.76;81.24
22647;BME280;11490;42.726;23.268;2022-08-05T02:24:34;95317.88;;;18.98;80.59
22647;BME280;11490;42.726;23.268;2022-08-05T02:27:03;95343.66;;;19.14;80.60
22647;BME280;11490;42.726;23.268;2022-08-05T02:29:33;95321.94;;;19.00;80.16
22647;BME280;11490;42.726;23.268;2022-08-05T02:31:59;95311.09;;;18.76;80.30
22647;BME280;11490;42.726;23.268;2022-08-05T02:34:29;95310.91;;;18.68;81.26
22647;BME280;11490;42.726;23.268;2022-08-05T02:36:59;95330.00;;;18.76;81.34
22647;BME280;11490;42.726;23.268;2022-08-05T02:39:28;95322.63;;;18.87;81.04
22647;BME280;11490;42.726;23.268;2022-08-05T02:41:59;95318.19;;;18.72;80.80
22647;BME280;11490;42.726;23.268;2022-08-05T02:44:25;95330.75;;;18.82;80.67
22647;BME280;11490;42.726;23.268;2022-08-05T02:46:53;95354.19;;;18.92;80.80
22647;BME280;11490;42.726;23.268;2022-08-05T02:49:20;95327.91;;;18.73;81.10
22647;BME280;11490;42.726;23.268;2022-08-05T02:51:45;95340.28;;;18.79;81.16
22647;BME280;11490;42.726;23.268;2022-08-05T02:54:12;95340.75;;;18.81;81.38
22647;BME280;11490;42.726;23.268;2022-08-05T02:56:40;95344.63;;;18.75;81.32
22647;BME280;11490;42.726;23.268;2022-08-05T02:59:09;95343.13;;;18.64;81.74
22647;BME280;11490;42.726;23.268;2022-08-05T03:01:36;95342.25;;;18.69;81.50
22647;BME280;11490;42.726;23.268;2022-08-05T03:04:06;95326.56;;;18.37;82.25
22647;BME280;11490;42.726;23.268;2022-08-05T03:06:36;95306.25;;;18.16;83.13
22647;BME280;11490;42.726;23.268;2022-08-05T03:09:02;95329.75;;;18.44;82.54
22647;BME280;11490;42.726;23.268;2022-08-05T03:11:28;95307.81;;;18.22;81.86
22647;BME280;11490;42.726;23.268;2022-08-05T03:13:53;95311.50;;;18.31;81.99
22647;BME280;11490;42.726;23.268;2022-08-05T03:16:20;95328.13;;;18.43;82.07
22647;BME280;11490;42.726;23.268;2022-08-05T03:18:51;95312.03;;;18.33;82.17
22647;BME280;11490;42.726;23.268;2022-08-05T03:21:23;95325.25;;;18.34;82.70
22647;BME280;11490;42.726;23.268;2022-08-05T03:23:48;95340.53;;;18.49;82.21
22647;BME280;11490;42.726;23.268;2022-08-05T03:26:14;95355.13;;;18.48;82.50
22647;BME280;11490;42.726;23.268;2022-08-05T03:28:40;95346.00;;;18.39;82.73
22647;BME280;11490;42.726;23.268;2022-08-05T03:31:06;95344.16;;;18.34;82.95
22647;BME280;11490;42.726;23.268;2022-08-05T03:33:32;95349.75;;;18.43;82.89
22647;BME280;11490;42.726;23.268;2022-08-05T03:35:58;95351.88;;;18.46;82.97
22647;BME280;11490;42.726;23.268;2022-08-05T03:38:25;95352.38;;;18.53;82.29
22647;BME280;11490;42.726;23.268;2022-08-05T03:40:51;95336.81;;;18.40;82.07
22647;BME280;11490;42.726;23.268;2022-08-05T03:43:25;95337.56;;;18.17;83.67
22647;BME280;11490;42.726;23.268;2022-08-05T03:46:09;95305.03;;;17.98;83.43
22647;BME280;11490;42.726;23.268;2022-08-05T03:48:34;95312.16;;;18.18;83.15
22647;BME280;11490;42.726;23.268;2022-08-05T03:53:34;95358.97;;;18.37;83.28
22647;BME280;11490;42.726;23.268;2022-08-05T03:56:05;95347.75;;;18.25;83.08
22647;BME280;11490;42.726;23.268;2022-08-05T03:58:35;95329.41;;;18.22;83.07
22647;BME280;11490;42.726;23.268;2022-08-05T04:01:03;95346.34;;;18.32;83.32
22647;BME280;11490;42.726;23.268;2022-08-05T04:03:33;95346.19;;;18.19;83.36
22647;BME280;11490;42.726;23.268;2022-08-05T04:06:03;95345.13;;;18.15;83.66
22647;BME280;11490;42.726;23.268;2022-08-05T04:08:31;95350.41;;;18.30;82.84
22647;BME280;11490;42.726;23.268;2022-08-05T04:10:57;95347.69;;;18.30;83.46
22647;BME280;11490;42.726;23.268;2022-08-05T04:13:24;95348.66;;;18.44;83.35
22647;BME280;11490;42.726;23.268;2022-08-05T04:15:50;95356.69;;;18.54;83.11
22647;BME280;11490;42.726;23.268;2022-08-05T04:18:16;95341.03;;;18.56;83.44
22647;BME280;11490;42.726;23.268;2022-08-05T04:20:42;95338.28;;;18.61;83.17
22647;BME280;11490;42.726;23.268;2022-08-05T04:23:08;95348.53;;;18.64;83.76
22647;BME280;11490;42.726;23.268;2022-08-05T04:25:34;95333.47;;;18.58;83.04
22647;BME280;11490;42.726;23.268;2022-08-05T04:28:00;95319.94;;;18.53;82.37
22647;BME280;11490;42.726;23.268;2022-08-05T04:30:25;95353.16;;;18.88;83.33
22647;BME280;11490;42.726;23.268;2022-08-05T04:32:50;95342.53;;;18.96;82.73
22647;BME280;11490;42.726;23.268;2022-08-05T04:35:16;95343.38;;;18.92;82.86
22647;BME280;11490;42.726;23.268;2022-08-05T04:37:41;95334.19;;;18.93;82.14
22647;BME280;11490;42.726;23.268;2022-08-05T04:40:07;95346.25;;;19.00;81.78
22647;BME280;11490;42.726;23.268;2022-08-05T04:42:33;95320.13;;;18.91;81.33
22647;BME280;11490;42.726;23.268;2022-08-05T04:44:59;95345.44;;;19.23;81.45
22647;BME280;11490;42.726;23.268;2022-08-05T04:47:24;95347.63;;;19.21;82.10
22647;BME280;11490;42.726;23.268;2022-08-05T04:49:49;95343.63;;;19.19;81.27
22647;BME280;11490;42.726;23.268;2022-08-05T04:52:16;95333.81;;;19.23;81.19
22647;BME280;11490;42.726;23.268;2022-08-05T04:54:42;95334.88;;;19.27;80.91
22647;BME280;11490;42.726;23.268;2022-08-05T04:57:07;95344.28;;;19.53;81.69
22647;BME280;11490;42.726;23.268;2022-08-05T04:59:33;95301.19;;;19.38;80.55
22647;BME280;11490;42.726;23.268;2022-08-05T05:01:58;95336.13;;;19.77;79.88
22647;BME280;11490;42.726;23.268;2022-08-05T05:04:24;95337.03;;;19.73;79.03
22647;BME280;11490;42.726;23.268;2022-08-05T05:06:49;95338.63;;;19.74;78.89
22647;BME280;11490;42.726;23.268;2022-08-05T05:09:15;95342.72;;;19.90;78.93
22647;BME280;11490;42.726;23.268;2022-08-05T05:11:40;95350.16;;;19.98;77.34
22647;BME280;11490;42.726;23.268;2022-08-05T05:14:06;95343.59;;;20.04;76.46
22647;BME280;11490;42.726;23.268;2022-08-05T05:16:31;95339.63;;;20.15;75.35
22647;BME280;11490;42.726;23.268;2022-08-05T05:18:57;95341.56;;;20.33;75.15
22647;BME280;11490;42.726;23.268;2022-08-05T05:21:22;95328.19;;;20.37;74.39
22647;BME280;11490;42.726;23.268;2022-08-05T05:23:48;95330.91;;;20.37;73.13
22647;BME280;11490;42.726;23.268;2022-08-05T05:26:13;95330.97;;;20.51;71.81
22647;BME280;11490;42.726;23.268;2022-08-05T05:28:39;95342.41;;;20.48;71.55
22647;BME280;11490;42.726;23.268;2022-08-05T05:31:04;95352.44;;;20.28;72.62
22647;BME280;11490;42.726;23.268;2022-08-05T05:33:30;95341.00;;;20.50;72.47
22647;BME280;11490;42.726;23.268;2022-08-05T05:35:55;95335.41;;;20.60;73.34
22647;BME280;11490;42.726;23.268;2022-08-05T05:38:21;95337.53;;;20.77;73.20
22647;BME280;11490;42.726;23.268;2022-08-05T05:40:46;95339.28;;;20.87;72.06
22647;BME280;11490;42.726;23.268;2022-08-05T05:43:12;95342.91;;;20.82;72.12
22647;BME280;11490;42.726;23.268;2022-08-05T05:45:37;95332.63;;;20.79;72.47
22647;BME280;11490;42.726;23.268;2022-08-05T05:48:03;95339.09;;;21.10;72.35
22647;BME280;11490;42.726;23.268;2022-08-05T05:50:32;95327.75;;;21.08;70.14
22647;BME280;11490;42.726;23.268;2022-08-05T05:52:57;95341.69;;;21.16;70.00
22647;BME280;11490;42.726;23.268;2022-08-05T05:55:23;95334.91;;;21.32;69.74
22647;BME280;11490;42.726;23.268;2022-08-05T05:57:48;95334.91;;;21.32;69.57
22647;BME280;11490;42.726;23.268;2022-08-05T06:00:16;95336.91;;;21.40;69.19
22647;BME280;11490;42.726;23.268;2022-08-05T06:02:42;95341.72;;;21.57;69.03
22647;BME280;11490;42.726;23.268;2022-08-05T06:16:09;95242.47;;;20.87;69.78
22647;BME280;11490;42.726;23.268;2022-08-05T06:22:11;95299.88;;;21.71;69.18
22647;BME280;11490;42.726;23.268;2022-08-05T06:24:41;95315.00;;;22.00;69.04
22647;BME280;11490;42.726;23.268;2022-08-05T06:27:06;95330.94;;;22.15;68.22
22647;BME280;11490;42.726;23.268;2022-08-05T06:29:32;95344.06;;;22.57;66.36
22647;BME280;11490;42.726;23.268;2022-08-05T06:31:57;95348.84;;;22.52;66.63
22647;BME280;11490;42.726;23.268;2022-08-05T06:34:23;95307.56;;;22.50;66.73
22647;BME280;11490;42.726;23.268;2022-08-05T06:36:48;95331.50;;;22.70;65.88
22647;BME280;11490;42.726;23.268;2022-08-05T06:39:14;95304.66;;;22.69;65.74
22647;BME280;11490;42.726;23.268;2022-08-05T06:41:39;95316.72;;;22.85;66.17
22647;BME280;11490;42.726;23.268;2022-08-05T06:44:04;95323.78;;;22.86;66.22
22647;BME280;11490;42.726;23.268;2022-08-05T06:46:30;95336.53;;;23.08;65.64
22647;BME280;11490;42.726;23.268;2022-08-05T06:48:56;95299.53;;;22.98;66.09
22647;BME280;11490;42.726;23.268;2022-08-05T06:51:21;95343.41;;;23.45;66.45
22647;BME280;11490;42.726;23.268;2022-08-05T06:53:47;95328.69;;;23.46;65.16
22647;BME280;11490;42.726;23.268;2022-08-05T06:56:12;95338.84;;;23.54;65.16
22647;BME280;11490;42.726;23.268;2022-08-05T06:58:38;95322.19;;;23.64;64.80
22647;BME280;11490;42.726;23.268;2022-08-05T07:01:04;95341.88;;;23.69;63.93
22647;BME280;11490;42.726;23.268;2022-08-05T07:03:30;95326.88;;;23.89;62.32
22647;BME280;11490;42.726;23.268;2022-08-05T07:05:57;95334.28;;;24.06;63.65
22647;BME280;11490;42.726;23.268;2022-08-05T07:08:23;95328.00;;;24.05;63.17
22647;BME280;11490;42.726;23.268;2022-08-05T07:10:49;95319.72;;;24.28;62.11
22647;BME280;11490;42.726;23.268;2022-08-05T07:13:15;95337.00;;;24.14;60.43
22647;BME280;11490;42.726;23.268;2022-08-05T07:15:59;95332.97;;;24.03;60.69
22647;BME280;11490;42.726;23.268;2022-08-05T07:18:43;95328.34;;;24.47;61.64
22647;BME280;11490;42.726;23.268;2022-08-05T07:21:08;95337.28;;;24.73;60.34
22647;BME280;11490;42.726;23.268;2022-08-05T07:23:34;95345.00;;;24.71;58.34
22647;BME280;11490;42.726;23.268;2022-08-05T07:26:00;95342.53;;;25.04;59.80
22647;BME280;11490;42.726;23.268;2022-08-05T07:28:26;95329.03;;;25.16;56.47
22647;BME280;11490;42.726;23.268;2022-08-05T07:30:51;95332.00;;;25.32;56.49
22647;BME280;11490;42.726;23.268;2022-08-05T07:33:17;95323.72;;;25.20;55.90
22647;BME280;11490;42.726;23.268;2022-08-05T07:35:44;95332.00;;;25.32;56.63
22647;BME280;11490;42.726;23.268;2022-08-05T07:38:10;95336.25;;;25.59;57.76
22647;BME280;11490;42.726;23.268;2022-08-05T07:40:36;95318.41;;;25.61;56.01
22647;BME280;11490;42.726;23.268;2022-08-05T07:43:01;95328.84;;;25.89;57.79
22647;BME280;11490;42.726;23.268;2022-08-05T07:45:27;95318.16;;;25.96;57.56
22647;BME280;11490;42.726;23.268;2022-08-05T07:47:52;95325.13;;;26.14;56.10
22647;BME280;11490;42.726;23.268;2022-08-05T07:50:18;95312.34;;;26.27;54.36
22647;BME280;11490;42.726;23.268;2022-08-05T07:52:44;95324.84;;;26.07;52.42
22647;BME280;11490;42.726;23.268;2022-08-05T07:55:09;95334.53;;;26.25;53.65
22647;BME280;11490;42.726;23.268;2022-08-05T07:57:35;95322.47;;;26.47;53.85
22647;BME280;11490;42.726;23.268;2022-08-05T08:00:02;95320.78;;;26.55;52.83
22647;BME280;11490;42.726;23.268;2022-08-05T08:02:28;95321.94;;;26.54;51.80
22647;BME280;11490;42.726;23.268;2022-08-05T08:04:54;95323.41;;;26.30;51.81
22647;BME280;11490;42.726;23.268;2022-08-05T08:07:20;95307.81;;;26.64;53.49
22647;BME280;11490;42.726;23.268;2022-08-05T08:09:47;95319.06;;;26.83;50.91
22647;BME280;11490;42.726;23.268;2022-08-05T08:12:13;95317.53;;;27.06;49.57
22647;BME280;11490;42.726;23.268;2022-08-05T08:14:39;95307.88;;;27.21;50.45
22647;BME280;11490;42.726;23.268;2022-08-05T08:17:05;95321.25;;;27.47;51.58
22647;BME280;11490;42.726;23.268;2022-08-05T08:19:35;95322.19;;;27.63;49.82
22647;BME280;11490;42.726;23.268;2022-08-05T08:22:01;95313.03;;;27.83;49.47
22647;BME280;11490;42.726;23.268;2022-08-05T08:24:26;95320.06;;;28.09;49.80
22647;BME280;11490;42.726;23.268;2022-08-05T08:26:52;95316.63;;;28.24;47.91
22647;BME280;11490;42.726;23.268;2022-08-05T08:29:17;95319.59;;;28.07;46.86
22647;BME280;11490;42.726;23.268;2022-08-05T08:31:43;95315.03;;;28.23;48.78
22647;BME280;11490;42.726;23.268;2022-08-05T08:34:08;95305.38;;;28.41;47.90
22647;BME280;11490;42.726;23.268;2022-08-05T08:36:33;95291.41;;;28.46;47.71
22647;BME280;11490;42.726;23.268;2022-08-05T08:38:59;95294.28;;;28.65;45.83
22647;BME280;11490;42.726;23.268;2022-08-05T08:41:26;95285.69;;;28.67;45.29
22647;BME280;11490;42.726;23.268;2022-08-05T08:43:54;95304.16;;;29.10;44.47
22647;BME280;11490;42.726;23.268;2022-08-05T08:46:22;95284.47;;;29.08;44.38
22647;BME280;11490;42.726;23.268;2022-08-05T08:48:48;95282.06;;;29.22;44.99
22647;BME280;11490;42.726;23.268;2022-08-05T08:51:16;95309.81;;;29.33;44.13
22647;BME280;11490;42.726;23.268;2022-08-05T08:53:44;95296.31;;;29.12;42.06
22647;BME280;11490;42.726;23.268;2022-08-05T08:56:09;95270.09;;;29.30;44.14
22647;BME280;11490;42.726;23.268;2022-08-05T08:58:35;95285.63;;;29.54;43.19
22647;BME280;11490;42.726;23.268;2022-08-05T09:01:01;95294.72;;;29.74;39.87
22647;BME280;11490;42.726;23.268;2022-08-05T09:03:27;95264.44;;;29.55;42.08
22647;BME280;11490;42.726;23.268;2022-08-05T09:05:55;95271.47;;;29.87;43.56
22647;BME280;11490;42.726;23.268;2022-08-05T09:08:21;95274.94;;;29.84;42.20
22647;BME280;11490;42.726;23.268;2022-08-05T09:10:47;95271.09;;;30.04;40.37
22647;BME280;11490;42.726;23.268;2022-08-05T09:13:13;95292.41;;;30.46;40.77
22647;BME280;11490;42.726;23.268;2022-08-05T09:15:39;95238.81;;;30.40;40.63
22647;BME280;11490;42.726;23.268;2022-08-05T09:18:06;95256.50;;;30.58;37.12
22647;BME280;11490;42.726;23.268;2022-08-05T09:20:33;95265.38;;;30.71;36.39
22647;BME280;11490;42.726;23.268;2022-08-05T09:23:06;95247.47;;;30.80;37.23
22647;BME280;11490;42.726;23.268;2022-08-05T09:25:33;95258.63;;;30.87;37.39
22647;BME280;11490;42.726;23.268;2022-08-05T09:28:09;95264.38;;;30.59;36.02
22647;BME280;11490;42.726;23.268;2022-08-05T09:30:35;95238.34;;;30.76;39.29
22647;BME280;11490;42.726;23.268;2022-08-05T09:33:01;95225.81;;;31.02;36.79
22647;BME280;11490;42.726;23.268;2022-08-05T09:35:27;95232.38;;;31.16;34.71
22647;BME280;11490;42.726;23.268;2022-08-05T09:37:53;95226.28;;;31.30;34.95
22647;BME280;11490;42.726;23.268;2022-08-05T09:42:54;95239.22;;;31.49;34.39
22647;BME280;11490;42.726;23.268;2022-08-05T09:45:19;95237.41;;;31.11;33.35
22647;BME280;11490;42.726;23.268;2022-08-05T09:47:45;95239.41;;;31.14;35.75
22647;BME280;11490;42.726;23.268;2022-08-05T09:50:10;95242.91;;;31.33;34.36
22647;BME280;11490;42.726;23.268;2022-08-05T09:52:36;95224.22;;;31.01;35.49
22647;BME280;11490;42.726;23.268;2022-08-05T09:55:07;95228.13;;;30.99;34.67
22647;BME280;11490;42.726;23.268;2022-08-05T09:57:37;95249.34;;;31.41;33.95
22647;BME280;11490;42.726;23.268;2022-08-05T10:02:43;95206.16;;;31.52;33.17
22647;BME280;11490;42.726;23.268;2022-08-05T10:05:16;95219.25;;;31.82;34.91
22647;BME280;11490;42.726;23.268;2022-08-05T10:07:47;95235.97;;;31.96;35.29
22647;BME280;11490;42.726;23.268;2022-08-05T10:10:14;95229.38;;;31.74;35.14
22647;BME280;11490;42.726;23.268;2022-08-05T10:12:48;95189.19;;;31.24;33.44
22647;BME280;11490;42.726;23.268;2022-08-05T10:15:20;95201.44;;;31.53;36.28
22647;BME280;11490;42.726;23.268;2022-08-05T10:18:09;95223.19;;;31.84;37.36
22647;BME280;11490;42.726;23.268;2022-08-05T10:20:43;95218.28;;;32.00;36.45
22647;BME280;11490;42.726;23.268;2022-08-05T10:23:12;95184.97;;;31.56;33.20
22647;BME280;11490;42.726;23.268;2022-08-05T10:25:38;95185.78;;;31.60;33.72
22647;BME280;11490;42.726;23.268;2022-08-05T10:28:04;95197.16;;;31.82;35.38
22647;BME280;11490;42.726;23.268;2022-08-05T10:30:30;95198.84;;;31.90;33.20
22647;BME280;11490;42.726;23.268;2022-08-05T10:32:57;95178.44;;;31.68;32.68
22647;BME280;11490;42.726;23.268;2022-08-05T10:35:25;95202.44;;;31.64;35.26
22647;BME280;11490;42.726;23.268;2022-08-05T10:37:52;95176.81;;;31.63;32.71
22647;BME280;11490;42.726;23.268;2022-08-05T10:42:52;95196.47;;;31.88;32.60
22647;BME280;11490;42.726;23.268;2022-08-05T10:45:27;95198.53;;;31.42;31.85
22647;BME280;11490;42.726;23.268;2022-08-05T10:47:55;95201.03;;;31.51;32.43
22647;BME280;11490;42.726;23.268;2022-08-05T10:50:20;95192.47;;;31.86;33.28
22647;BME280;11490;42.726;23.268;2022-08-05T10:52:48;95181.25;;;32.01;33.84
22647;BME280;11490;42.726;23.268;2022-08-05T10:55:25;95194.41;;;32.11;31.47
22647;BME280;11490;42.726;23.268;2022-08-05T10:58:08;95161.53;;;31.69;32.50
22647;BME280;11490;42.726;23.268;2022-08-05T11:00:34;95173.81;;;31.76;32.78
22647;BME280;11490;42.726;23.268;2022-08-05T11:05:28;95178.47;;;32.31;36.26
22647;BME280;11490;42.726;23.268;2022-08-05T11:07:58;95169.50;;;32.08;32.02
22647;BME280;11490;42.726;23.268;2022-08-05T11:10:26;95191.53;;;32.34;35.61
22647;BME280;11490;42.726;23.268;2022-08-05T11:12:52;95172.81;;;31.87;32.50
22647;BME280;11490;42.726;23.268;2022-08-05T11:17:50;95154.84;;;31.18;32.41
22647;BME280;11490;42.726;23.268;2022-08-05T11:26:08;95164.44;;;31.80;32.65
22647;BME280;11490;42.726;23.268;2022-08-05T11:35:59;95132.63;;;31.90;33.46
22647;BME280;11490;42.726;23.268;2022-08-05T11:41:07;95163.13;;;31.18;33.16
22647;BME280;11490;42.726;23.268;2022-08-05T11:43:33;95127.75;;;30.74;34.66
22647;BME280;11490;42.726;23.268;2022-08-05T11:46:01;95128.38;;;30.64;34.94
22647;BME280;11490;42.726;23.268;2022-08-05T11:48:27;95148.84;;;30.67;35.65
22647;BME280;11490;42.726;23.268;2022-08-05T11:50:54;95149.13;;;30.81;35.63
22647;BME280;11490;42.726;23.268;2022-08-05T11:53:20;95168.63;;;31.18;35.71
22647;BME280;11490;42.726;23.268;2022-08-05T11:55:52;95145.81;;;31.21;33.87
22647;BME280;11490;42.726;23.268;2022-08-05T11:58:37;95125.06;;;31.27;33.96
22647;BME280;11490;42.726;23.268;2022-08-05T12:01:11;95137.78;;;31.61;34.10
22647;BME280;11490;42.726;23.268;2022-08-05T12:03:44;95159.38;;;31.86;32.74
22647;BME280;11490;42.726;23.268;2022-08-05T12:06:12;95152.75;;;32.20;33.40
22647;BME280;11490;42.726;23.268;2022-08-05T12:08:42;95154.13;;;32.40;33.71
22647;BME280;11490;42.726;23.268;2022-08-05T12:11:09;95154.31;;;32.21;32.14
22647;BME280;11490;42.726;23.268;2022-08-05T12:13:36;95147.59;;;31.89;32.10
22647;BME280;11490;42.726;23.268;2022-08-05T12:16:04;95138.47;;;31.85;33.52
22647;BME280;11490;42.726;23.268;2022-08-05T12:18:33;95144.88;;;31.62;33.40
22647;BME280;11490;42.726;23.268;2022-08-05T12:21:14;95148.72;;;31.28;34.59
22647;BME280;11490;42.726;23.268;2022-08-05T12:23:56;95146.53;;;31.41;33.97
22647;BME280;11490;42.726;23.268;2022-08-05T12:26:22;95147.75;;;31.43;34.76
22647;BME280;11490;42.726;23.268;2022-08-05T12:28:47;95134.50;;;31.26;34.93
22647;BME280;11490;42.726;23.268;2022-08-05T12:31:12;95144.63;;;31.18;35.75
22647;BME280;11490;42.726;23.268;2022-08-05T12:33:38;95132.16;;;31.05;35.79
22647;BME280;11490;42.726;23.268;2022-08-05T12:36:05;95144.00;;;31.06;34.86
22647;BME280;11490;42.726;23.268;2022-08-05T12:38:31;95122.34;;;31.04;36.28
22647;BME280;11490;42.726;23.268;2022-08-05T12:40:57;95135.03;;;30.86;35.45
22647;BME280;11490;42.726;23.268;2022-08-05T12:43:23;95113.25;;;30.77;35.82
22647;BME280;11490;42.726;23.268;2022-08-05T12:53:04;95085.28;;;30.75;34.93
22647;BME280;11490;42.726;23.268;2022-08-05T12:55:39;95102.78;;;30.86;34.90
22647;BME280;11490;42.726;23.268;2022-08-05T12:58:22;95021.78;;;30.42;35.19
22647;BME280;11490;42.726;23.268;2022-08-05T13:00:59;95096.69;;;31.00;35.39
22647;BME280;11490;42.726;23.268;2022-08-05T13:03:45;95070.44;;;30.83;35.99
22647;BME280;11490;42.726;23.268;2022-08-05T13:06:14;95094.13;;;31.11;36.30
22647;BME280;11490;42.726;23.268;2022-08-05T13:08:41;95107.84;;;31.07;35.04
22647;BME280;11490;42.726;23.268;2022-08-05T13:11:06;95087.84;;;31.14;34.69
22647;BME280;11490;42.726;23.268;2022-08-05T13:13:32;95087.75;;;31.33;35.01
22647;BME280;11490;42.726;23.268;2022-08-05T13:15:57;95087.47;;;31.15;33.50
22647;BME280;11490;42.726;23.268;2022-08-05T13:18:23;95089.88;;;31.17;33.66
22647;BME280;11490;42.726;23.268;2022-08-05T13:20:48;95088.34;;;31.19;33.44
22647;BME280;11490;42.726;23.268;2022-08-05T13:23:13;95085.41;;;31.35;33.72
22647;BME280;11490;42.726;23.268;2022-08-05T13:25:39;95092.19;;;31.41;34.17
22647;BME280;11490;42.726;23.268;2022-08-05T13:28:05;95078.53;;;31.52;33.76
22647;BME280;11490;42.726;23.268;2022-08-05T13:30:30;95080.91;;;31.53;33.61
22647;BME280;11490;42.726;23.268;2022-08-05T13:32:56;95076.47;;;31.45;32.97
22647;BME280;11490;42.726;23.268;2022-08-05T13:35:21;95083.16;;;31.44;33.18
22647;BME280;11490;42.726;23.268;2022-08-05T13:37:47;95079.81;;;31.28;33.05
22647;BME280;11490;42.726;23.268;2022-08-05T13:40:13;95082.31;;;31.40;32.90
22647;BME280;11490;42.726;23.268;2022-08-05T13:42:39;95073.81;;;31.22;33.14
22647;BME280;11490;42.726;23.268;2022-08-05T13:45:05;95072.59;;;31.20;31.78
22647;BME280;11490;42.726;23.268;2022-08-05T13:47:32;95059.63;;;30.97;31.99
22647;BME280;11490;42.726;23.268;2022-08-05T13:49:59;95078.03;;;31.13;31.78
22647;BME280;11490;42.726;23.268;2022-08-05T13:52:25;95073.44;;;31.24;32.88
22647;BME280;11490;42.726;23.268;2022-08-05T13:54:55;95079.69;;;31.21;32.43
22647;BME280;11490;42.726;23.268;2022-08-05T13:57:20;95073.19;;;31.36;32.84